Time;durP1;ratioP1;P1;durP2;ratioP2;P2;SDS_P1;SDS_P2;PMS_P1;PMS_P2;Temp;Humidity;BMP_temperature;BMP_pressure;BME280_temperature;BME280_humidity;BME280_pressure;Samples;Min_cycle;Max_cycle;Signal;HPM_P1;HPM_P2
2022/07/10 06:58:08;;;;;;;4.47;1.55;;;;;;;15.07;80.16;99271.25;1870788;74;23162;-65
2022/07/10 07:00:35;;;;;;;;;;;;;;;14.81;80.31;99277.93;1824554;76;20882;-63
2022/07/10 07:03:05;;;;;;;4.28;0.90;;;;;;;14.74;80.71;99268.83;1826054;76;23202;-63
2022/07/10 07:05:31;;;;;;;4.12;1.20;;;;;;;14.78;80.73;99271.58;1820071;76;21601;-65
2022/07/10 07:07:58;;;;;;;4.20;1.33;;;;;;;14.93;80.95;99263.92;1830446;76;21045;-66
2022/07/10 07:10:24;;;;;;;4.00;1.27;;;;;;;15.65;82.35;99266.94;1832383;76;21064;-66
2022/07/10 07:12:53;;;;;;;4.47;1.60;;;;;;;17.13;83.28;99255.79;1832032;76;21216;-65
2022/07/10 07:15:22;;;;;;;3.55;1.22;;;;;;;18.33;81.28;99246.56;1831304;76;21064;-67
2022/07/10 07:18:07;;;;;;;;;;;;;;;;;;;;;
2022/07/10 07:23:09;;;;;;;6.65;1.30;;;;;;;18.02;78.25;99258.95;1828344;76;21029;-66
2022/07/10 07:25:41;;;;;;;4.28;1.20;;;;;;;17.54;78.27;99264.73;1824598;76;21539;-66
2022/07/10 07:28:10;;;;;;;6.75;1.35;;;;;;;17.12;78.74;99260.72;1830364;76;21617;-66
2022/07/10 07:30:37;;;;;;;4.20;1.35;;;;;;;16.78;78.74;99262.13;1833242;76;21476;-66
2022/07/10 07:33:04;;;;;;;3.22;1.00;;;;;;;16.43;78.85;99264.06;1839579;76;21807;-63
2022/07/10 07:35:31;;;;;;;6.53;1.22;;;;;;;16.12;79.07;99261.19;1832750;76;20931;-65
2022/07/10 07:37:59;;;;;;;2.95;0.85;;;;;;;16.03;79.61;99257.95;1832239;76;21027;-66
2022/07/10 07:40:25;;;;;;;;;;;;;;;15.99;79.09;99265.72;1830412;76;21113;-65
2022/07/10 07:42:56;;;;;;;5.90;1.42;;;;;;;15.85;79.16;99275.53;1829647;75;20524;-65
2022/07/10 07:45:24;;;;;;;3.62;1.17;;;;;;;15.79;79.32;99268.08;1827865;76;21048;-65
2022/07/10 07:47:59;;;;;;;5.08;1.55;;;;;;;15.79;79.05;99270.71;1832522;76;20989;-65
2022/07/10 07:50:31;;;;;;;5.28;1.35;;;;;;;15.72;79.29;99268.20;1831119;76;21577;-65
2022/07/10 07:52:58;;;;;;;4.37;1.25;;;;;;;15.83;79.34;99266.91;1828358;76;21597;-66
2022/07/10 07:55:25;;;;;;;3.87;1.37;;;;;;;16.00;79.86;99262.98;1825074;76;20990;-65
2022/07/10 07:57:55;;;;;;;5.83;1.52;;;;;;;16.48;80.81;99259.27;1831249;76;21570;-66
2022/07/10 08:00:27;;;;;;;3.30;1.07;;;;;;;17.20;81.02;99254.34;1821797;76;21018;-65
2022/07/10 08:02:56;;;;;;;2.85;1.07;;;;;;;17.66;79.83;99250.50;1819806;76;21592;-65
2022/07/10 08:05:24;;;;;;;5.25;1.40;;;;;;;17.93;78.67;99250.50;1828824;76;21071;-66
2022/07/10 08:07:54;;;;;;;2.27;0.93;;;;;;;17.94;77.99;99244.23;1835237;76;20983;-65
2022/07/10 08:10:25;;;;;;;6.00;1.02;;;;;;;18.09;76.60;99246.90;1836309;76;22453;-65
2022/07/10 08:12:52;;;;;;;4.17;1.12;;;;;;;17.89;78.03;99246.42;1830721;76;20983;-65
2022/07/10 08:15:23;;;;;;;3.90;1.20;;;;;;;18.17;77.73;99249.34;1827672;76;22297;-65
2022/07/10 08:17:52;;;;;;;2.62;0.88;;;;;;;18.26;77.15;99249.86;1832231;76;21763;-65
2022/07/10 08:20:19;;;;;;;3.90;1.10;;;;;;;18.48;77.12;99249.66;1822344;76;21516;-65
2022/07/10 08:22:46;;;;;;;6.55;1.20;;;;;;;18.33;76.48;99253.66;1830117;76;20997;-65
2022/07/10 08:25:14;;;;;;;4.33;1.27;;;;;;;18.28;76.25;99249.25;1829200;76;20921;-65
2022/07/10 08:27:41;;;;;;;4.40;1.32;;;;;;;18.35;75.38;99251.73;1825187;76;20954;-65
2022/07/10 08:30:09;;;;;;;;;;;;;;;18.75;76.06;99244.28;1839355;76;21965;-64
2022/07/10 08:32:37;;;;;;;6.47;1.30;;;;;;;18.70;73.27;99247.30;1825150;76;20169;-65
2022/07/10 08:35:05;;;;;;;4.95;1.20;;;;;;;18.70;74.21;99248.62;1832433;77;20884;-65
2022/07/10 08:37:43;;;;;;;3.12;1.40;;;;;;;18.63;74.02;99251.96;1832389;77;21029;-64
2022/07/10 08:40:13;;;;;;;4.83;1.50;;;;;;;18.50;72.49;99245.09;1832541;77;20990;-65
2022/07/10 08:42:44;;;;;;;6.12;1.50;;;;;;;18.03;73.63;99244.76;1829856;77;21029;-64
2022/07/10 08:45:11;;;;;;;4.05;1.22;;;;;;;17.68;72.97;99245.94;1829874;77;21021;-64
2022/07/10 08:47:41;;;;;;;4.58;1.30;;;;;;;17.44;71.16;99271.25;1829363;77;20935;-64
2022/07/10 08:50:24;;;;;;;6.10;1.42;;;;;;;17.11;72.60;99260.38;1832616;77;20989;-64
2022/07/10 08:53:20;;;;;;;4.25;1.65;;;;;;;17.60;73.73;99258.94;1831334;77;20944;-64
2022/07/10 08:55:47;;;;;;;5.70;1.60;;;;;;;17.71;70.94;99259.85;1827542;76;21462;-65
2022/07/10 08:58:14;;;;;;;8.35;1.30;;;;;;;17.89;71.26;99250.39;1832263;77;20938;-65
2022/07/10 09:00:41;;;;;;;;;;;;;;;18.19;68.99;99256.66;1835906;77;20939;-65
2022/07/10 09:03:10;;;;;;;2.58;1.12;;;;;;;18.17;70.76;99256.78;1830814;76;20202;-65
2022/07/10 09:05:37;;;;;;;5.92;1.42;;;;;;;18.29;68.12;99252.27;1824703;76;20977;-66
2022/07/10 09:08:06;;;;;;;5.17;1.77;;;;;;;17.84;66.60;99252.58;1834453;76;21559;-65
2022/07/10 09:10:33;;;;;;;5.47;1.30;;;;;;;17.72;68.19;99256.23;1833804;76;21027;-66
2022/07/10 09:13:02;;;;;;;7.25;1.15;;;;;;;17.58;67.56;99263.50;1832288;76;21013;-65
2022/07/10 09:15:36;;;;;;;5.78;1.20;;;;;;;17.81;69.33;99252.84;1830755;76;21036;-64
2022/07/10 09:18:08;;;;;;;4.87;1.22;;;;;;;18.03;69.52;99251.36;1830521;76;21026;-65
2022/07/10 09:20:42;;;;;;;4.97;1.35;;;;;;;17.95;69.12;99254.31;1835050;76;21036;-64
2022/07/10 09:23:19;;;;;;;7.37;1.92;;;;;;;17.55;69.17;99255.84;1822982;76;20996;-65
2022/07/10 09:25:50;;;;;;;4.10;1.60;;;;;;;17.34;69.27;99269.03;1838293;76;21527;-65
2022/07/10 09:28:20;;;;;;;3.42;1.65;;;;;;;17.39;70.13;99263.36;1829462;76;21172;-64
2022/07/10 09:30:48;;;;;;;4.25;1.57;;;;;;;17.85;70.52;99267.47;1830534;76;21677;-65
2022/07/10 09:33:30;;;;;;;6.03;1.57;;;;;;;18.36;70.32;99263.97;1841628;76;21183;-65
2022/07/10 09:36:11;;;;;;;3.08;1.25;;;;;;;18.43;68.69;99273.05;1828649;76;21481;-65
2022/07/10 09:38:51;;;;;;;3.55;1.10;;;;;;;18.14;64.29;99268.11;1840549;76;20921;-66
2022/07/10 09:41:23;;;;;;;7.08;0.95;;;;;;;18.29;67.93;99263.67;1830683;77;21590;-66
2022/07/10 09:43:53;;;;;;;7.28;1.07;;;;;;;18.45;66.94;99264.48;1833289;77;21586;-65
2022/07/10 09:46:24;;;;;;;4.40;1.27;;;;;;;18.35;66.16;99267.59;1833046;77;21897;-65
2022/07/10 09:49:04;;;;;;;6.42;1.40;;;;;;;18.01;65.36;99278.41;1829255;77;21100;-66
2022/07/10 09:51:34;;;;;;;2.62;1.07;;;;;;;17.78;65.72;99277.70;1833636;77;20997;-66
2022/07/10 09:54:06;;;;;;;3.25;1.00;;;;;;;17.73;65.86;99282.98;1831625;77;21706;-66
2022/07/10 09:56:43;;;;;;;4.50;1.00;;;;;;;17.68;65.67;99277.62;1837364;77;20946;-66
2022/07/10 09:59:18;;;;;;;5.08;1.00;;;;;;;17.84;66.60;99281.62;1820738;77;21261;-66
2022/07/10 10:01:48;;;;;;;6.95;1.30;;;;;;;17.71;64.13;99286.25;1823046;76;21532;-66
2022/07/10 10:04:21;;;;;;;4.42;1.30;;;;;;;17.40;65.41;99299.36;1827992;76;20969;-67
2022/07/10 10:07:00;;;;;;;2.52;0.85;;;;;;;17.26;65.22;99296.53;1825980;76;21079;-66
2022/07/10 10:09:34;;;;;;;4.30;1.00;;;;;;;17.18;64.89;99299.78;1823914;76;21585;-66
2022/07/10 10:12:11;;;;;;;3.98;1.22;;;;;;;17.23;65.69;99296.78;1831426;76;21457;-66
2022/07/10 10:14:40;;;;;;;10.50;1.42;;;;;;;17.30;65.42;99303.70;1835655;76;21029;-65
2022/07/10 10:17:08;;;;;;;3.55;0.90;;;;;;;17.44;64.98;99291.53;1836380;76;21063;-65
2022/07/10 10:22:25;;;;;;;9.63;1.40;;;;;;;18.27;65.77;99295.16;1841537;76;20969;-65
2022/07/10 10:24:53;;;;;;;5.53;1.60;;;;;;;18.68;64.52;99307.89;1836963;76;21073;-66
2022/07/10 10:27:21;;;;;;;5.95;1.10;;;;;;;18.76;64.83;99301.48;1826483;76;21005;-65
2022/07/10 10:29:49;;;;;;;5.30;1.57;;;;;;;18.85;64.51;99305.98;1841779;76;20888;-65
2022/07/10 10:32:16;;;;;;;4.92;1.10;;;;;;;18.83;64.90;99306.59;1835358;76;20997;-65
2022/07/10 10:34:44;;;;;;;;;;;;;;;18.71;62.17;99305.02;1838341;76;20976;-67
2022/07/10 10:37:42;;;;;;;5.33;1.15;;;;;;;18.69;64.28;99312.23;1837364;76;21737;-68
2022/07/10 10:40:10;;;;;;;6.60;1.30;;;;;;;18.56;63.43;99311.96;1829644;76;20942;-62
2022/07/10 10:42:42;;;;;;;4.05;1.25;;;;;;;17.99;61.76;99318.64;1831226;76;20923;-66
2022/07/10 10:45:34;;;;;;;4.17;1.12;;;;;;;17.64;61.94;99335.61;1835018;76;20938;-67
2022/07/10 10:48:12;;;;;;;2.75;1.00;;;;;;;17.41;62.29;99322.13;1833036;76;20960;-67
2022/07/10 10:50:47;;;;;;;7.65;1.12;;;;;;;17.37;62.75;99335.23;1843023;76;21067;-67
2022/07/10 10:53:27;;;;;;;4.35;1.12;;;;;;;17.35;62.89;99330.56;1844639;76;21461;-66
2022/07/10 10:56:07;;;;;;;9.08;0.90;;;;;;;17.43;62.90;99333.41;1829794;76;21000;-67
2022/07/10 10:58:41;;;;;;;3.42;0.90;;;;;;;17.48;62.84;99338.33;1845032;76;21550;-67
2022/07/10 11:01:29;;;;;;;5.05;1.62;;;;;;;17.32;62.93;99333.45;1829497;76;21046;-67
2022/07/10 11:04:07;;;;;;;5.08;1.52;;;;;;;17.40;63.35;99325.75;1824037;76;21878;-66
2022/07/10 11:06:47;;;;;;;5.40;1.40;;;;;;;17.71;63.48;99329.82;1827257;76;21021;-66
2022/07/10 11:09:34;;;;;;;4.72;1.25;;;;;;;18.00;62.15;99318.98;1816889;76;21535;-66
2022/07/10 11:12:08;;;;;;;7.37;1.40;;;;;;;18.06;63.58;99321.13;1829424;76;21500;-67
2022/07/10 11:14:43;;;;;;;4.22;1.10;;;;;;;18.20;63.22;99323.06;1843048;76;21505;-67
2022/07/10 11:17:12;;;;;;;3.33;0.80;;;;;;;18.15;62.69;99312.91;1840917;76;21135;-64
2022/07/10 11:19:40;;;;;;;2.37;0.80;;;;;;;17.94;60.92;99324.80;1840027;76;21056;-65
2022/07/10 11:22:29;;;;;;;;;;;;;;;18.15;61.72;99319.97;1836852;76;20943;-65
2022/07/10 11:25:17;;;;;;;2.15;0.80;;;;;;;18.39;61.81;99305.98;1826146;76;20144;-66
2022/07/10 11:28:10;;;;;;;2.55;0.60;;;;;;;18.55;61.53;99322.20;1818892;76;20966;-66
2022/07/10 11:30:51;;;;;;;5.15;0.80;;;;;;;18.45;60.62;99310.73;1725083;80;21852;-66
2022/07/10 11:33:24;;;;;;;3.85;1.17;;;;;;;18.59;60.98;99308.70;1696142;82;20935;-67
2022/07/10 11:35:51;;;;;;;3.02;0.90;;;;;;;18.37;60.67;99305.27;1661638;83;21086;-67
2022/07/10 11:38:28;;;;;;;4.50;0.90;;;;;;;18.08;58.98;99311.25;1693293;83;21030;-66
2022/07/10 11:40:55;;;;;;;;;;;;;;;18.05;59.85;99316.80;1665916;83;21087;-66
2022/07/10 11:43:23;;;;;;;3.87;0.80;;;;;;;18.05;61.07;99314.16;1682358;83;22495;-66
2022/07/10 11:45:53;;;;;;;4.70;0.90;;;;;;;18.30;60.42;99317.36;1681884;83;21066;-68
2022/07/10 11:48:23;;;;;;;1.75;0.75;;;;;;;18.10;60.09;99314.61;1669315;83;20999;-68
2022/07/10 11:50:50;;;;;;;4.97;1.45;;;;;;;17.84;59.66;99315.95;1687327;83;21070;-67
2022/07/10 11:53:26;;;;;;;4.00;1.25;;;;;;;17.77;60.65;99317.42;1738110;80;21525;-68
2022/07/10 11:55:54;;;;;;;3.93;1.20;;;;;;;18.21;61.25;99318.98;1742419;80;21845;-67
2022/07/10 11:58:22;;;;;;;6.42;1.02;;;;;;;18.63;58.94;99322.03;1734248;80;21623;-67
2022/07/10 12:01:14;;;;;;;3.98;1.12;;;;;;;18.60;57.91;99328.42;1748628;80;20966;-67
2022/07/10 12:03:33;;;;;;;6.03;1.30;;;;;;;18.43;58.47;99323.27;1748674;80;20900;-67
2022/07/10 12:06:07;;;;;;;2.95;0.80;;;;;;;18.40;58.87;99338.08;1746246;80;21334;-68
2022/07/10 12:08:46;;;;;;;2.55;0.98;;;;;;;18.46;58.83;99327.45;1758253;80;21062;-67
2022/07/10 12:11:16;;;;;;;5.17;0.60;;;;;;;18.59;58.50;99332.50;1733772;80;21569;-67
2022/07/10 12:13:44;;;;;;;2.15;0.70;;;;;;;18.60;56.52;99332.84;1753678;80;21041;-67
2022/07/10 12:16:11;;;;;;;4.35;0.85;;;;;;;18.51;56.71;99327.88;1734738;80;21573;-67
2022/07/10 12:18:40;;;;;;;;;;;;;;;18.81;56.33;99342.91;1733322;80;21013;-67
2022/07/10 12:21:08;;;;;;;6.53;0.80;;;;;;;18.93;56.04;99325.98;1769286;80;21086;-67
2022/07/10 12:23:39;;;;;;;6.58;0.98;;;;;;;18.76;56.58;99329.25;1746973;80;21589;-68
2022/07/10 12:26:06;;;;;;;3.12;1.22;;;;;;;18.55;56.81;99332.77;1754837;80;21263;-67
2022/07/10 12:28:53;;;;;;;2.98;0.98;;;;;;;18.42;57.57;99334.80;1717257;81;20998;-68
2022/07/10 12:31:31;;;;;;;3.83;1.00;;;;;;;18.60;57.77;99339.45;1749283;80;20990;-68
2022/07/10 12:34:02;;;;;;;2.87;1.00;;;;;;;18.80;56.55;99337.28;1686931;82;21113;-67
2022/07/10 12:36:52;;;;;;;3.17;1.07;;;;;;;19.08;57.56;99338.83;1728610;80;21680;-67
2022/07/10 12:39:26;;;;;;;3.33;1.00;;;;;;;18.98;56.50;99327.71;1759114;80;21021;-67
2022/07/10 12:42:05;;;;;;;4.65;1.22;;;;;;;18.79;56.98;99332.95;1741372;80;20958;-67
2022/07/10 12:44:48;;;;;;;2.83;0.95;;;;;;;18.75;56.82;99336.84;1735594;80;21027;-68
2022/07/10 12:47:18;;;;;;;2.72;0.80;;;;;;;18.81;57.08;99337.63;1734771;80;21957;-68
2022/07/10 12:50:06;;;;;;;3.37;1.10;;;;;;;18.48;56.27;99343.52;1734116;80;22368;-68
2022/07/10 12:52:37;;;;;;;6.87;1.12;;;;;;;18.35;55.76;99354.81;1757982;80;21558;-68
2022/07/10 12:55:21;;;;;;;4.75;1.20;;;;;;;18.29;56.60;99352.69;1735333;80;22366;-67
2022/07/10 12:57:58;;;;;;;3.85;1.02;;;;;;;18.23;56.59;99353.19;1746718;80;20963;-68
2022/07/10 13:00:31;;;;;;;2.65;0.90;;;;;;;17.90;56.99;99361.69;1732680;80;21739;-67
2022/07/10 13:03:04;;;;;;;3.80;1.15;;;;;;;17.79;57.53;99360.42;1758158;80;21021;-68
2022/07/10 13:05:34;;;;;;;2.08;0.55;;;;;;;17.99;57.78;99350.34;1751457;79;21503;-68
2022/07/10 13:08:23;;;;;;;6.53;0.98;;;;;;;18.21;57.41;99360.44;1735180;80;21017;-67
2022/07/10 13:10:53;;;;;;;5.00;1.30;;;;;;;18.13;57.44;99349.67;1748133;80;21066;-68
2022/07/10 13:13:21;;;;;;;5.10;1.22;;;;;;;17.97;57.88;99356.23;1733314;80;21151;-67
2022/07/10 13:15:57;;;;;;;3.02;0.98;;;;;;;18.23;57.66;99353.19;1735685;80;21030;-67
2022/07/10 13:18:24;;;;;;;2.35;0.95;;;;;;;18.17;57.59;99343.98;1751388;80;21018;-67
2022/07/10 13:20:54;;;;;;;3.37;1.00;;;;;;;18.11;57.18;99358.55;1741193;80;20951;-64
2022/07/10 13:23:25;;;;;;;3.08;0.80;;;;;;;18.18;56.89;99364.66;1732631;80;21654;-66
2022/07/10 13:25:56;;;;;;;8.45;1.00;;;;;;;18.32;56.55;99346.66;1752182;80;21428;-67
2022/07/10 13:28:22;;;;;;;3.92;1.00;;;;;;;18.64;56.48;99354.10;1748681;80;20985;-65
2022/07/10 13:30:49;;;;;;;4.22;0.95;;;;;;;19.19;57.28;99353.27;1752265;80;21068;-66
2022/07/10 13:33:16;;;;;;;6.65;1.30;;;;;;;19.31;55.32;99358.77;1751799;80;21563;-67
2022/07/10 13:35:43;;;;;;;3.00;1.00;;;;;;;19.40;56.16;99372.50;1748876;80;21065;-66
2022/07/10 13:38:09;;;;;;;3.40;1.17;;;;;;;19.53;55.79;99372.75;1761474;80;21058;-66
2022/07/10 13:40:38;;;;;;;3.95;0.80;;;;;;;19.52;56.16;99368.41;1737060;80;21538;-67
2022/07/10 13:43:06;;;;;;;2.50;1.00;;;;;;;19.67;54.41;99369.72;1729753;80;22384;-66
2022/07/10 13:45:42;;;;;;;1.60;0.50;;;;;;;19.76;53.59;99364.89;1748672;80;21090;-66
2022/07/10 13:48:07;;;;;;;2.12;0.55;;;;;;;19.65;53.22;99370.30;1730270;80;21033;-66
2022/07/10 13:50:34;;;;;;;2.77;1.27;;;;;;;19.34;53.54;99377.03;1732479;80;21389;-66
2022/07/10 13:53:00;;;;;;;1.62;0.40;;;;;;;19.15;50.88;99377.82;1741635;80;20985;-66
2022/07/10 13:55:27;;;;;;;2.12;0.80;;;;;;;19.05;51.59;99376.98;1750191;80;20951;-66
2022/07/10 13:57:53;;;;;;;1.82;0.65;;;;;;;19.05;52.20;99378.80;1739220;80;21065;-66
2022/07/10 14:00:20;;;;;;;4.05;0.70;;;;;;;18.94;52.05;99387.17;1732232;80;21030;-66
2022/07/10 14:02:47;;;;;;;2.52;0.68;;;;;;;19.00;52.45;99379.19;1726361;80;22213;-66
2022/07/10 14:05:13;;;;;;;0.82;0.33;;;;;;;18.96;51.48;99378.63;1737508;80;21041;-66
2022/07/10 14:07:40;;;;;;;0.85;0.42;;;;;;;18.83;51.12;99376.69;1657683;84;21622;-66
2022/07/10 14:11:17;;;;;;;2.33;0.70;;;;;;;18.71;51.14;99373.77;1784660;79;22806;-66
2022/07/10 14:13:44;;;;;;;1.25;0.70;;;;;;;18.54;51.42;99384.45;1754799;80;20922;-66
2022/07/10 14:16:11;;;;;;;4.67;0.98;;;;;;;18.14;51.53;99388.33;1706359;83;21060;-66
2022/07/10 14:18:38;;;;;;;2.98;0.80;;;;;;;18.16;52.09;99389.04;1704516;82;21534;-66
2022/07/10 14:21:11;;;;;;;2.05;0.93;;;;;;;18.31;52.30;99386.41;1698272;82;21017;-66
2022/07/10 14:23:44;;;;;;;1.55;0.55;;;;;;;18.56;52.44;99379.38;1693811;82;20970;-66
2022/07/10 14:26:12;;;;;;;1.70;0.50;;;;;;;18.29;51.16;99393.16;1694612;81;21021;-66
2022/07/10 14:28:39;;;;;;;0.93;0.50;;;;;;;17.97;50.63;99395.84;1700545;81;21997;-66
2022/07/10 14:31:08;;;;;;;1.17;0.57;;;;;;;17.76;51.42;99402.89;1687542;81;28288;-66
2022/07/10 14:33:36;;;;;;;2.92;0.70;;;;;;;17.80;51.49;99404.34;1696553;81;21013;-66
2022/07/10 14:36:04;;;;;;;1.65;0.50;;;;;;;17.98;51.85;99417.36;1696641;81;20927;-66
2022/07/10 14:38:31;;;;;;;1.67;0.60;;;;;;;18.11;51.78;99400.81;1703249;81;21086;-66
2022/07/10 14:40:58;;;;;;;1.65;0.72;;;;;;;18.30;51.54;99403.25;1689279;81;22159;-66
2022/07/10 14:43:25;;;;;;;1.80;0.55;;;;;;;18.45;51.67;99399.29;1697879;81;21073;-66
2022/07/10 14:46:13;;;;;;;0.93;0.40;;;;;;;18.58;52.01;99400.91;1749734;78;20938;-66
2022/07/10 14:48:40;;;;;;;2.40;0.72;;;;;;;18.84;50.48;99395.55;1766408;79;21058;-66
2022/07/10 14:51:07;;;;;;;3.00;0.98;;;;;;;19.01;51.44;99386.97;1738636;81;21071;-66
2022/07/10 14:53:35;;;;;;;1.17;0.50;;;;;;;19.15;51.28;99402.12;1758922;80;21974;-66
2022/07/10 14:56:03;;;;;;;3.25;0.62;;;;;;;19.11;51.60;99406.86;1749579;80;20953;-66
2022/07/10 14:58:30;;;;;;;2.75;0.50;;;;;;;19.22;51.90;99403.28;1759828;80;21014;-66
2022/07/10 15:00:56;;;;;;;1.65;0.57;;;;;;;19.00;51.62;99411.77;1774131;80;20990;-66
2022/07/10 15:03:23;;;;;;;1.07;0.42;;;;;;;18.75;51.79;99438.67;1751294;80;21558;-66
2022/07/10 15:05:52;;;;;;;2.52;0.60;;;;;;;18.47;51.73;99421.64;1759455;79;21302;-66
2022/07/10 15:08:23;;;;;;;3.70;0.72;;;;;;;18.22;52.50;99422.88;1751914;81;21613;-66
2022/07/10 15:10:50;;;;;;;2.65;0.62;;;;;;;18.29;52.87;99418.77;1759023;80;20994;-65
2022/07/10 15:13:17;;;;;;;2.35;0.62;;;;;;;18.54;53.22;99424.97;1762513;79;20890;-67
2022/07/10 15:15:44;;;;;;;2.70;0.70;;;;;;;18.84;52.86;99432.58;1762270;79;21037;-65
2022/07/10 15:18:11;;;;;;;4.25;0.50;;;;;;;18.72;52.98;99428.33;1760059;80;22315;-66
2022/07/10 15:20:38;;;;;;;1.30;0.47;;;;;;;18.78;53.11;99433.11;1759621;80;20965;-67
2022/07/10 15:23:05;;;;;;;2.00;0.70;;;;;;;18.98;52.77;99428.73;1759564;80;20948;-67
2022/07/10 15:25:32;;;;;;;0.72;0.40;;;;;;;18.94;51.86;99438.77;1743121;80;21074;-67
2022/07/10 15:28:02;;;;;;;1.20;0.40;;;;;;;18.91;51.56;99439.03;1736999;81;21579;-67
2022/07/10 15:30:29;;;;;;;1.32;0.50;;;;;;;18.89;50.90;99440.12;1740281;81;21018;-68
2022/07/10 15:32:55;;;;;;;1.25;0.60;;;;;;;19.00;52.20;99430.28;1739138;81;21010;-67
2022/07/10 15:35:23;;;;;;;1.20;0.50;;;;;;;19.14;52.03;99432.22;1736168;81;21536;-67
2022/07/10 15:37:50;;;;;;;0.82;0.50;;;;;;;19.05;51.67;99443.62;1763571;81;21650;-67
2022/07/10 15:40:16;;;;;;;1.07;0.57;;;;;;;18.99;51.91;99441.84;1757339;81;21049;-68
2022/07/10 15:42:43;;;;;;;1.32;0.53;;;;;;;19.09;52.55;99455.11;1746957;81;21080;-66
2022/07/10 15:45:10;;;;;;;1.75;0.68;;;;;;;18.94;52.58;99448.02;1743333;81;21088;-67
2022/07/10 15:47:37;;;;;;;1.30;0.65;;;;;;;18.93;52.49;99452.11;1764392;79;20960;-67
2022/07/10 15:50:06;;;;;;;1.87;0.50;;;;;;;18.88;52.71;99460.46;1761200;79;21058;-67
2022/07/10 15:52:33;;;;;;;1.27;0.45;;;;;;;18.62;52.62;99452.05;1750023;79;21059;-66
2022/07/10 15:55:00;;;;;;;1.65;0.68;;;;;;;18.56;52.86;99453.41;1755489;80;22076;-67
2022/07/10 15:57:28;;;;;;;1.55;0.47;;;;;;;18.77;53.05;99447.31;1756199;79;21009;-66
2022/07/10 15:59:55;;;;;;;3.72;0.80;;;;;;;18.98;52.87;99446.77;1754608;80;20959;-68
2022/07/10 16:02:22;;;;;;;1.87;0.68;;;;;;;18.70;53.18;99451.41;1758929;80;21026;-65
2022/07/10 16:04:48;;;;;;;2.35;0.72;;;;;;;18.77;53.52;99442.86;1765513;80;20990;-65
2022/07/10 16:07:15;;;;;;;2.90;0.53;;;;;;;18.86;53.37;99451.81;1763249;79;21441;-67
2022/07/10 16:09:42;;;;;;;1.52;0.65;;;;;;;18.66;53.29;99447.36;1758349;80;21795;-67
2022/07/10 16:12:09;;;;;;;1.25;0.70;;;;;;;18.57;53.79;99447.67;1763108;79;21611;-66
2022/07/10 16:14:35;;;;;;;0.90;0.50;;;;;;;18.81;54.23;99451.36;1759519;80;20988;-66
2022/07/10 16:17:03;;;;;;;1.12;0.30;;;;;;;19.13;54.25;99450.38;1758354;79;21017;-65
2022/07/10 16:19:30;;;;;;;0.85;0.30;;;;;;;19.21;53.67;99455.84;1761892;79;21100;-66
2022/07/10 16:21:58;;;;;;;2.55;0.55;;;;;;;19.12;52.43;99456.65;1760083;79;21051;-66
2022/07/10 16:24:25;;;;;;;1.95;0.57;;;;;;;18.87;51.81;99462.73;1761945;79;21008;-67
2022/07/10 16:26:52;;;;;;;1.75;0.42;;;;;;;18.67;51.07;99463.57;1761789;80;21481;-67
2022/07/10 16:29:19;;;;;;;1.07;0.45;;;;;;;18.43;51.43;99475.27;1759138;79;20980;-66
2022/07/10 16:31:48;;;;;;;2.00;0.53;;;;;;;18.22;51.15;99478.36;1755590;80;21606;-66
2022/07/10 16:34:14;;;;;;;2.42;0.45;;;;;;;17.94;51.69;99471.39;1759245;80;21146;-67
2022/07/10 16:36:41;;;;;;;1.90;0.47;;;;;;;17.61;51.39;99464.36;1758666;80;21001;-66
2022/07/10 16:39:07;;;;;;;1.10;0.42;;;;;;;17.33;52.08;99474.97;1756700;80;21483;-67
2022/07/10 16:41:34;;;;;;;0.60;0.25;;;;;;;17.16;52.74;99481.09;1762786;79;20952;-68
2022/07/10 16:45:59;;;;;;;3.98;0.42;;;;;;;16.92;53.65;99463.25;1745240;79;22747;-67
2022/07/10 16:48:26;;;;;;;0.95;0.40;;;;;;;16.77;53.49;99473.98;1696313;81;21013;-67
2022/07/10 16:50:53;;;;;;;1.45;0.57;;;;;;;16.67;53.78;99470.37;1708663;81;21794;-66
2022/07/10 16:53:22;;;;;;;;;;;;;;;16.69;53.80;99471.10;1708081;81;22364;-66
2022/07/10 16:55:50;;;;;;;1.65;0.62;;;;;;;16.74;54.10;99468.09;1708247;80;20149;-68
2022/07/10 16:58:18;;;;;;;1.15;0.50;;;;;;;16.84;54.73;99463.00;1699522;81;21029;-66
2022/07/10 17:00:45;;;;;;;2.42;0.50;;;;;;;16.87;54.55;99471.50;1698299;81;21056;-66
2022/07/10 17:03:12;;;;;;;1.65;0.40;;;;;;;16.88;54.93;99470.53;1707771;81;21425;-66
2022/07/10 17:05:38;;;;;;;1.37;0.42;;;;;;;16.95;54.75;99470.92;1697549;81;22182;-67
2022/07/10 17:08:09;;;;;;;2.20;0.40;;;;;;;17.03;54.70;99460.61;1706748;81;20981;-66
2022/07/10 17:10:34;;;;;;;2.05;0.50;;;;;;;17.04;54.78;99460.96;1705148;81;21268;-65
2022/07/10 17:13:00;;;;;;;4.67;0.70;;;;;;;16.99;55.06;99456.03;1716160;81;21014;-66
2022/07/10 17:15:27;;;;;;;0.60;0.30;;;;;;;16.98;55.21;99465.40;1706940;81;21085;-65
2022/07/10 17:17:54;;;;;;;1.50;0.55;;;;;;;16.95;55.37;99461.20;1707116;80;21133;-65
2022/07/10 17:20:24;;;;;;;1.25;0.45;;;;;;;16.83;55.82;99464.77;1703101;81;21977;-65
2022/07/10 17:22:49;;;;;;;2.08;0.60;;;;;;;16.68;56.09;99466.77;1709392;81;21005;-65
2022/07/10 17:25:16;;;;;;;2.00;0.60;;;;;;;16.56;56.33;99472.98;1701096;81;20989;-65
2022/07/10 17:29:40;;;;;;;1.50;0.60;;;;;;;16.51;56.27;99465.42;1857030;76;22862;-65
2022/07/10 17:32:08;;;;;;;;;;;;;;;16.43;56.43;99457.73;1829511;75;21010;-65
2022/07/10 17:34:35;;;;;;;0.80;0.40;;;;;;;16.43;56.82;99457.73;1828221;77;21061;-65
2022/07/10 17:37:04;;;;;;;1.67;0.60;;;;;;;16.53;56.90;99452.14;1792450;78;21014;-65
2022/07/10 17:39:32;;;;;;;2.95;0.82;;;;;;;16.77;56.97;99447.63;1782437;79;22356;-64
2022/07/10 17:41:59;;;;;;;1.20;0.70;;;;;;;17.04;57.16;99449.09;1776197;80;21250;-65
2022/07/10 17:44:26;;;;;;;1.35;0.60;;;;;;;17.29;57.13;99444.52;1802273;78;20977;-65
2022/07/10 17:46:54;;;;;;;1.85;0.70;;;;;;;17.60;57.27;99451.65;1800065;78;21728;-66
2022/07/10 17:49:21;;;;;;;2.22;0.62;;;;;;;17.88;57.15;99454.73;1793996;78;21041;-65
2022/07/10 17:51:49;;;;;;;2.90;0.70;;;;;;;18.03;57.05;99453.45;1733380;80;68753;-66
2022/07/10 17:54:36;;;;;;;2.65;0.70;;;;;;;18.02;56.79;99446.50;1708222;83;21590;-65
2022/07/10 17:57:05;;;;;;;1.32;0.53;;;;;;;17.86;56.82;99461.92;1627325;86;21072;-66
2022/07/10 17:59:32;;;;;;;3.37;0.98;;;;;;;17.59;57.34;99468.47;1594171;88;21159;-65
2022/07/10 18:01:59;;;;;;;2.65;0.60;;;;;;;17.28;57.50;99458.66;1625979;86;21155;-66
2022/07/10 18:04:25;;;;;;;1.95;0.50;;;;;;;17.14;57.58;99473.80;1634203;86;21024;-66
2022/07/10 18:06:52;;;;;;;1.45;0.65;;;;;;;17.00;57.77;99479.31;1627709;86;21021;-66
2022/07/10 18:09:19;;;;;;;1.70;0.57;;;;;;;16.85;57.83;99475.21;1631379;86;21689;-66
2022/07/10 18:11:46;;;;;;;3.37;0.88;;;;;;;16.74;58.15;99472.88;1627061;86;21151;-66
2022/07/10 18:14:13;;;;;;;1.10;0.62;;;;;;;16.61;58.45;99477.89;1628248;86;21155;-65
2022/07/10 18:16:40;;;;;;;1.47;0.68;;;;;;;16.45;58.53;99480.86;1628131;86;21404;-65
2022/07/10 18:19:09;;;;;;;1.62;0.70;;;;;;;16.29;60.34;99492.54;1626365;86;21086;-65
2022/07/10 18:21:36;;;;;;;2.70;0.50;;;;;;;16.16;59.79;99497.06;1620132;87;20980;-65
2022/07/10 18:24:03;;;;;;;2.35;0.90;;;;;;;16.05;59.13;99500.96;1631192;86;21517;-65
2022/07/10 18:26:31;;;;;;;4.35;0.85;;;;;;;15.95;61.56;99540.76;1629106;86;21096;-65
2022/07/10 18:28:59;;;;;;;0.82;0.40;;;;;;;15.09;61.98;99534.94;1603604;88;21577;-65
2022/07/10 18:31:27;;;;;;;3.52;0.60;;;;;;;14.24;63.86;99523.49;1628770;87;21530;-66
2022/07/10 18:36:40;;;;;;;2.33;0.62;;;;;;;12.91;67.48;99551.47;1627622;87;21130;-67
2022/07/10 18:39:11;;;;;;;4.17;0.78;;;;;;;12.19;72.37;99568.29;1597433;88;21372;-69
2022/07/10 18:41:39;;;;;;;0.40;0.30;;;;;;;11.80;71.18;99564.30;1601219;88;21151;-69
2022/07/10 18:44:06;;;;;;;2.45;0.50;;;;;;;11.49;70.37;99547.30;1629985;86;21648;-70
2022/07/10 18:46:33;;;;;;;1.32;0.40;;;;;;;11.25;70.56;99538.97;1598044;88;20980;-69
2022/07/10 18:49:00;;;;;;;1.42;0.57;;;;;;;11.14;68.95;99535.61;1602115;88;21268;-69
2022/07/10 18:51:29;;;;;;;2.75;0.60;;;;;;;11.06;68.07;99512.95;1603832;87;21565;-69
2022/07/10 18:53:57;;;;;;;1.30;0.65;;;;;;;10.94;68.42;99507.45;1598767;88;21110;-69
2022/07/10 18:56:23;;;;;;;;;;;;;;;10.94;72.68;99503.53;1631943;87;21793;-69
2022/07/10 18:58:50;;;;;;;2.23;0.80;;;;;;;10.86;70.12;99504.86;1626232;86;20153;-68
2022/07/10 19:01:20;;;;;;;;;;;;;;;10.84;69.82;99508.88;1632826;86;21115;-68